Decoded Metar for VOCI (COCHIN INTL in INDIA) (IATA:N/A) | Meteo·Mobile Aviation Weather
aviador You're here:

VOCI Decoded Metar

COCHIN INTL in INDIA
Report Time2019-01-17 00:00:00
UTC Time2019-01-17 00:09:40
Flight Rules ifr IFR
Wind090° at 04 kt
W.Decomp.*RWY 09: 4.0 kt HW 0.2 kt RCW
W.Rank090° ranks 2
Current wind is below 090° avg. (4.0)
Visibility3500 m
Phenomena:Mist
Clouds:Few 010 Hf
Scattered 090 Hf
Expected CloudBase > 800 ft AGL from Temp-Dew spread
CeilingNone
Temp20°C (ISA +5)
Dew Point18°C (88% RH)
QNH1010 hPa
Density Alt991 ft
Elevation26 ft
Report Wrong Elevation
Raw Report
METAR VOCI 170000Z 09004KT 3500 BR FEW010 SCT090 20/18 Q1010 NOSIG=

Extra information for VOCI:More info

Metar Taf Metar & Taf Last 4 Metars F.Rules Stats Wind Profile Meteogram Temp Stats Airport Information Weather charts Add Link Nearby VenuesMetar ALERT Operation Metar Decoded Social comments